createdAt,value
2022-12-07T00:01:45.076Z,34.40
2022-12-07T00:04:15.250Z,34.40
2022-12-07T00:06:46.192Z,34.40
2022-12-07T00:09:17.551Z,34.40
2022-12-07T00:11:45.959Z,34.50
2022-12-07T00:14:16.586Z,34.50
2022-12-07T00:16:45.355Z,34.50
2022-12-07T00:19:14.943Z,34.50
2022-12-07T00:21:44.951Z,34.50
2022-12-07T00:24:13.730Z,34.50
2022-12-07T00:26:42.911Z,34.50
2022-12-07T00:29:17.351Z,34.50
2022-12-07T00:31:47.428Z,34.60
2022-12-07T00:34:21.180Z,34.50
2022-12-07T00:36:49.495Z,34.60
2022-12-07T00:39:16.826Z,34.50
2022-12-07T00:41:43.852Z,34.60
2022-12-07T00:44:11.078Z,34.50
2022-12-07T00:46:38.045Z,34.50
2022-12-07T00:49:04.979Z,34.50
2022-12-07T00:51:31.840Z,34.50
2022-12-07T00:53:58.749Z,34.50
2022-12-07T00:56:29.090Z,34.50
2022-12-07T00:59:00.531Z,34.60
2022-12-07T01:01:32.140Z,34.60
2022-12-07T01:04:02.168Z,34.60
2022-12-07T01:06:30.197Z,34.50
2022-12-07T01:08:58.336Z,34.60
2022-12-07T01:11:29.620Z,34.50
2022-12-07T01:13:58.909Z,34.60
2022-12-07T01:16:30.484Z,34.50
2022-12-07T01:18:58.986Z,34.60
2022-12-07T01:21:37.014Z,34.50
2022-12-07T01:24:07.407Z,34.60
2022-12-07T01:26:34.854Z,34.60
2022-12-07T01:29:01.989Z,34.60
2022-12-07T01:31:29.774Z,34.60
2022-12-07T01:33:59.535Z,34.60
2022-12-07T01:36:33.045Z,34.60
2022-12-07T01:39:04.303Z,34.60
2022-12-07T01:41:36.461Z,34.60
2022-12-07T01:44:41.049Z,34.60
2022-12-07T01:47:08.238Z,34.70
2022-12-07T01:49:49.804Z,34.60
2022-12-07T01:52:36.115Z,34.60
2022-12-07T01:55:11.760Z,34.70
2022-12-07T01:57:46.500Z,34.70
2022-12-07T02:00:14.405Z,34.70
2022-12-07T02:02:58.081Z,34.60
2022-12-07T02:05:27.276Z,34.70
2022-12-07T02:07:58.387Z,34.60
2022-12-07T02:10:28.771Z,34.70
2022-12-07T02:13:06.770Z,34.70
2022-12-07T02:15:50.588Z,34.70
2022-12-07T02:18:43.899Z,34.70
2022-12-07T02:21:23.227Z,34.80
2022-12-07T02:24:25.997Z,34.70
2022-12-07T02:27:27.915Z,34.80
2022-12-07T02:30:13.242Z,34.80
2022-12-07T02:33:07.256Z,34.70
2022-12-07T02:36:02.574Z,34.70
2022-12-07T02:38:40.558Z,34.80
2022-12-07T02:41:17.161Z,34.80
2022-12-07T02:43:52.718Z,34.80
2022-12-07T02:46:28.772Z,34.80
2022-12-07T02:48:56.895Z,34.70
2022-12-07T02:51:24.078Z,34.80
2022-12-07T02:53:51.049Z,34.70
2022-12-07T02:56:45.300Z,34.70
2022-12-07T02:59:42.965Z,34.80
2022-12-07T03:02:25.683Z,34.70
2022-12-07T03:05:35.805Z,34.70
2022-12-07T03:08:19.373Z,34.80
2022-12-07T03:11:08.414Z,34.80
2022-12-07T03:14:17.034Z,34.80
2022-12-07T03:17:01.339Z,34.80
2022-12-07T03:19:28.913Z,34.80
2022-12-07T03:22:06.481Z,34.70
2022-12-07T03:24:46.035Z,34.80
2022-12-07T03:27:22.465Z,34.80
2022-12-07T03:30:13.781Z,34.80
2022-12-07T03:33:05.939Z,35.20
2022-12-07T03:35:50.987Z,34.70
2022-12-07T03:38:31.090Z,34.80
2022-12-07T03:41:23.436Z,34.80
2022-12-07T03:43:50.622Z,34.80
2022-12-07T03:46:38.516Z,34.80
2022-12-07T03:49:22.785Z,34.90
2022-12-07T03:52:03.479Z,34.90
2022-12-07T03:54:46.479Z,34.80
2022-12-07T03:57:14.353Z,35.50
2022-12-07T03:59:45.187Z,34.80
2022-12-07T04:02:15.457Z,34.70
2022-12-07T04:04:44.329Z,34.80
2022-12-07T04:07:11.840Z,34.90
2022-12-07T04:09:38.832Z,34.80
2022-12-07T04:12:06.114Z,34.80
2022-12-07T04:14:33.010Z,34.80
2022-12-07T04:17:00.299Z,34.80
2022-12-07T04:19:34.814Z,34.80
2022-12-07T04:22:04.743Z,35.50
2022-12-07T04:24:32.434Z,34.80
2022-12-07T04:27:01.657Z,34.80
2022-12-07T04:29:29.084Z,34.80
2022-12-07T04:31:56.141Z,34.80
2022-12-07T04:34:23.208Z,34.80
2022-12-07T04:36:50.615Z,34.80
2022-12-07T04:39:27.615Z,34.90
2022-12-07T04:41:55.079Z,35.00
2022-12-07T04:44:23.561Z,34.90
2022-12-07T04:46:51.278Z,35.00
2022-12-07T04:49:19.527Z,34.90
2022-12-07T04:51:48.528Z,34.90
2022-12-07T04:54:16.942Z,34.90
2022-12-07T04:56:46.756Z,35.00
2022-12-07T04:59:15.512Z,34.90
2022-12-07T05:01:42.736Z,34.80
2022-12-07T05:04:10.298Z,34.90
2022-12-07T05:06:37.516Z,34.90
2022-12-07T05:09:08.077Z,34.90
2022-12-07T05:11:40.819Z,35.00
2022-12-07T05:14:22.230Z,34.90
2022-12-07T05:16:51.793Z,35.00
2022-12-07T05:19:20.201Z,34.90
2022-12-07T05:21:48.083Z,34.90
2022-12-07T05:24:17.511Z,34.90
2022-12-07T05:26:45.889Z,35.00
2022-12-07T05:29:16.153Z,35.00
2022-12-07T05:31:43.976Z,35.00
2022-12-07T05:34:11.439Z,35.00
2022-12-07T05:36:38.527Z,35.00
2022-12-07T05:39:05.626Z,35.10
2022-12-07T05:41:50.662Z,35.00
2022-12-07T05:44:17.631Z,35.00
2022-12-07T05:46:44.732Z,35.00
2022-12-07T05:49:11.690Z,34.90
2022-12-07T05:51:38.715Z,35.00
2022-12-07T05:54:05.642Z,35.00
2022-12-07T05:56:32.624Z,35.00
2022-12-07T05:59:17.793Z,35.00
2022-12-07T06:01:44.753Z,35.00
2022-12-07T06:04:12.001Z,35.00
2022-12-07T06:06:38.856Z,35.00
2022-12-07T06:09:06.371Z,35.00
2022-12-07T06:11:52.076Z,35.00
2022-12-07T06:14:19.111Z,35.00
2022-12-07T06:16:46.243Z,35.00
2022-12-07T06:19:13.288Z,35.00
2022-12-07T06:21:40.545Z,35.00
2022-12-07T06:24:08.354Z,35.00
2022-12-07T06:26:35.315Z,35.10
2022-12-07T06:29:03.297Z,35.00
2022-12-07T06:31:30.269Z,35.00
2022-12-07T06:34:05.264Z,35.10
2022-12-07T06:36:32.474Z,35.10
2022-12-07T06:38:59.573Z,35.00
2022-12-07T06:41:26.660Z,35.00
2022-12-07T06:43:56.282Z,35.10
2022-12-07T06:46:24.043Z,35.20
2022-12-07T06:48:51.445Z,35.30
2022-12-07T06:51:18.739Z,35.30
2022-12-07T06:53:45.909Z,35.40
2022-12-07T06:56:12.801Z,35.60
2022-12-07T06:58:41.228Z,35.60
2022-12-07T07:01:18.811Z,35.70
2022-12-07T07:03:47.099Z,35.70
2022-12-07T07:06:16.219Z,35.70
2022-12-07T07:08:43.336Z,35.80
2022-12-07T07:11:11.084Z,35.80
2022-12-07T07:13:38.504Z,35.80
2022-12-07T07:16:07.128Z,35.80
2022-12-07T07:18:34.122Z,35.80
2022-12-07T07:21:01.891Z,35.90
2022-12-07T07:23:28.924Z,35.80
2022-12-07T07:25:56.185Z,35.90
2022-12-07T07:28:24.147Z,35.90
2022-12-07T07:30:51.435Z,35.90
2022-12-07T07:33:18.419Z,36.60
2022-12-07T07:35:45.462Z,35.90
2022-12-07T07:38:12.410Z,36.10
2022-12-07T07:40:39.464Z,36.00
2022-12-07T07:43:06.409Z,36.10
2022-12-07T07:45:33.422Z,36.10
2022-12-07T07:48:00.350Z,36.20
2022-12-07T07:50:27.398Z,36.20
2022-12-07T07:52:57.260Z,36.10
2022-12-07T07:55:24.170Z,36.10
2022-12-07T07:57:54.680Z,36.00
2022-12-07T08:00:23.047Z,36.00
2022-12-07T08:02:52.860Z,36.00
2022-12-07T08:05:19.913Z,35.90
2022-12-07T08:07:47.091Z,36.00
2022-12-07T08:10:17.359Z,36.00
2022-12-07T08:13:03.420Z,37.00
2022-12-07T08:15:32.042Z,35.90
2022-12-07T08:17:59.640Z,35.90
2022-12-07T08:20:27.367Z,35.80
2022-12-07T08:22:54.404Z,36.00
2022-12-07T08:25:23.267Z,35.90
2022-12-07T08:27:52.572Z,35.90
2022-12-07T08:30:20.431Z,35.80
2022-12-07T08:32:48.857Z,35.90
2022-12-07T08:35:18.745Z,35.90
2022-12-07T08:37:45.935Z,35.80
2022-12-07T08:40:16.523Z,35.90
2022-12-07T08:42:45.662Z,36.00
2022-12-07T08:45:16.392Z,35.90
2022-12-07T08:47:55.068Z,36.50
2022-12-07T08:50:23.065Z,35.90
2022-12-07T08:52:57.857Z,35.90
2022-12-07T08:55:25.792Z,35.80
2022-12-07T08:57:53.040Z,35.90
2022-12-07T09:00:20.389Z,35.90
2022-12-07T09:02:48.251Z,35.80
2022-12-07T09:05:18.338Z,35.90
2022-12-07T09:07:51.848Z,36.30
2022-12-07T09:10:19.668Z,35.70
2022-12-07T09:12:46.622Z,35.90
2022-12-07T09:15:13.585Z,35.80
2022-12-07T09:17:40.605Z,35.70
2022-12-07T09:20:08.227Z,35.80
2022-12-07T09:22:37.045Z,35.70
2022-12-07T09:25:05.538Z,35.70
2022-12-07T09:27:32.612Z,36.00
2022-12-07T09:30:01.010Z,35.60
2022-12-07T09:32:28.390Z,35.60
2022-12-07T09:34:58.827Z,35.70
2022-12-07T09:37:28.511Z,35.40
2022-12-07T09:39:55.390Z,35.60
2022-12-07T09:42:30.129Z,35.50
2022-12-07T09:45:02.162Z,35.50
2022-12-07T09:47:30.218Z,35.50
2022-12-07T09:50:29.638Z,35.50
2022-12-07T09:53:37.732Z,35.40
2022-12-07T09:56:05.896Z,35.40
2022-12-07T09:58:34.728Z,34.60
2022-12-07T10:01:15.650Z,35.40
2022-12-07T10:03:54.104Z,35.40
2022-12-07T10:06:21.635Z,35.40
2022-12-07T10:08:48.792Z,35.40
2022-12-07T10:11:17.277Z,35.40
2022-12-07T10:13:54.985Z,35.50
2022-12-07T10:16:24.961Z,35.50
2022-12-07T10:18:53.403Z,35.60
2022-12-07T10:21:26.944Z,35.70
2022-12-07T10:24:16.118Z,35.60
2022-12-07T10:26:49.234Z,35.60
2022-12-07T10:29:33.676Z,35.60
2022-12-07T10:32:34.950Z,35.20
2022-12-07T10:35:30.550Z,35.30
2022-12-07T10:38:00.730Z,35.00
2022-12-07T10:40:35.749Z,35.20
2022-12-07T10:43:14.772Z,35.10
2022-12-07T10:46:21.504Z,35.00
2022-12-07T10:49:47.246Z,34.80
2022-12-07T10:52:46.731Z,34.70
2022-12-07T10:55:34.282Z,34.70
2022-12-07T10:58:14.221Z,34.80
2022-12-07T11:00:55.649Z,34.80
2022-12-07T11:03:49.818Z,34.80
2022-12-07T11:06:36.487Z,34.60
2022-12-07T11:10:07.337Z,34.50
2022-12-07T11:12:33.686Z,34.40
2022-12-07T11:15:17.761Z,34.60
2022-12-07T11:18:02.343Z,34.50
2022-12-07T11:20:50.199Z,34.50
2022-12-07T11:23:50.714Z,34.50
2022-12-07T11:26:53.422Z,34.40
2022-12-07T11:30:24.782Z,34.40
2022-12-07T11:33:12.668Z,34.40
2022-12-07T11:36:04.336Z,34.40
2022-12-07T11:38:48.641Z,34.50
2022-12-07T11:41:25.712Z,35.10
2022-12-07T11:44:31.509Z,34.40
2022-12-07T11:47:28.349Z,34.40
2022-12-07T11:50:24.871Z,34.40
2022-12-07T11:53:11.517Z,34.50
2022-12-07T11:56:10.781Z,34.50
2022-12-07T11:59:20.665Z,34.60
2022-12-07T12:02:29.714Z,34.70
2022-12-07T12:05:06.277Z,34.60
2022-12-07T12:11:03.259Z,33.90
2022-12-07T12:17:18.381Z,33.90
2022-12-07T12:20:16.670Z,34.10
2022-12-07T12:23:52.589Z,34.20
2022-12-07T12:26:26.717Z,34.20
2022-12-07T12:29:02.823Z,34.30
2022-12-07T12:31:33.547Z,34.30
2022-12-07T12:34:10.229Z,34.30
2022-12-07T12:36:43.791Z,34.30
2022-12-07T12:39:21.803Z,34.40
2022-12-07T12:41:53.469Z,34.40
2022-12-07T12:44:41.467Z,34.50
2022-12-07T12:47:54.650Z,34.50
2022-12-07T12:50:39.569Z,34.50
2022-12-07T12:53:23.561Z,34.80
2022-12-07T12:56:33.407Z,34.90
2022-12-07T12:59:25.336Z,34.70
2022-12-07T13:02:08.311Z,35.10
2022-12-07T13:05:11.477Z,34.70
2022-12-07T13:07:47.299Z,34.60
2022-12-07T13:10:32.151Z,34.50
2022-12-07T13:13:19.927Z,34.50
2022-12-07T13:16:14.622Z,34.50
2022-12-07T13:18:42.509Z,34.50
2022-12-07T13:21:09.529Z,34.50
2022-12-07T13:23:45.862Z,34.50
2022-12-07T13:26:31.054Z,34.70
2022-12-07T13:29:16.286Z,35.30
2022-12-07T13:31:59.851Z,34.80
2022-12-07T13:34:37.293Z,34.80
2022-12-07T13:37:12.463Z,34.80
2022-12-07T13:39:54.187Z,34.80
2022-12-07T13:42:35.083Z,34.80
2022-12-07T13:45:47.592Z,34.70
2022-12-07T13:48:22.284Z,35.20
2022-12-07T13:50:57.968Z,34.50
2022-12-07T13:53:25.875Z,34.40
2022-12-07T13:56:01.765Z,34.50
2022-12-07T13:58:33.900Z,34.40
2022-12-07T14:01:01.314Z,34.40
2022-12-07T14:03:35.503Z,34.40
2022-12-07T14:06:28.072Z,34.40
2022-12-07T14:09:20.338Z,34.30
2022-12-07T14:11:51.072Z,34.30
2022-12-07T14:14:36.671Z,34.40
2022-12-07T14:17:23.605Z,34.30
2022-12-07T14:20:06.074Z,34.30
2022-12-07T14:22:38.365Z,34.40
2022-12-07T14:25:14.428Z,34.40
2022-12-07T14:27:53.882Z,34.50
2022-12-07T14:30:21.730Z,34.50
2022-12-07T14:32:55.257Z,34.50
2022-12-07T14:35:22.315Z,34.50
2022-12-07T14:37:52.763Z,34.60
2022-12-07T14:40:28.648Z,34.60
2022-12-07T14:43:03.591Z,34.50
2022-12-07T14:45:30.841Z,34.50
2022-12-07T14:53:49.922Z,34.50
2022-12-07T14:56:20.266Z,34.40
2022-12-07T14:58:51.879Z,34.40
2022-12-07T15:01:18.880Z,34.40
2022-12-07T15:03:45.845Z,34.40
2022-12-07T15:06:19.918Z,34.40
2022-12-07T15:08:47.124Z,34.40
2022-12-07T15:11:19.917Z,34.40
2022-12-07T15:14:05.669Z,34.40
2022-12-07T15:16:52.572Z,34.10
2022-12-07T15:19:30.002Z,34.30
2022-12-07T15:21:59.239Z,34.30
2022-12-07T15:24:27.153Z,34.30
2022-12-07T15:26:54.112Z,34.30
2022-12-07T15:29:23.713Z,34.30
2022-12-07T15:31:57.139Z,34.40
2022-12-07T15:34:34.798Z,34.30
2022-12-07T15:37:06.578Z,34.40
2022-12-07T15:39:33.572Z,34.30
2022-12-07T15:42:00.669Z,34.30
2022-12-07T15:44:46.460Z,34.30
2022-12-07T15:47:13.454Z,34.30
2022-12-07T15:49:40.359Z,34.30
2022-12-07T15:52:07.301Z,34.30
2022-12-07T15:54:34.351Z,34.30
2022-12-07T15:57:01.556Z,34.30
2022-12-07T15:59:29.986Z,34.30
2022-12-07T16:01:57.692Z,34.30
2022-12-07T16:04:24.949Z,34.40
2022-12-07T16:06:52.255Z,34.30
2022-12-07T16:09:20.072Z,34.30
2022-12-07T16:11:47.268Z,34.20
2022-12-07T16:14:14.554Z,34.20
2022-12-07T16:16:42.798Z,34.10
2022-12-07T16:19:11.907Z,34.10
2022-12-07T16:21:41.567Z,34.70
2022-12-07T16:24:11.169Z,34.00
2022-12-07T16:26:38.356Z,34.00
2022-12-07T16:29:05.359Z,34.00
2022-12-07T16:31:33.022Z,33.90
2022-12-07T16:34:00.337Z,33.90
2022-12-07T16:37:02.152Z,34.00
2022-12-07T16:39:15.862Z,34.00
2022-12-07T16:41:42.964Z,33.90
2022-12-07T16:44:14.435Z,33.90
2022-12-07T16:46:42.091Z,33.90
2022-12-07T16:49:14.265Z,34.00
2022-12-07T16:51:43.737Z,34.00
2022-12-07T16:54:14.070Z,34.00
2022-12-07T16:56:41.311Z,34.00
2022-12-07T16:59:09.119Z,34.00
2022-12-07T17:01:36.979Z,34.10
2022-12-07T17:04:05.403Z,34.00
2022-12-07T17:06:33.355Z,34.00
2022-12-07T17:09:01.263Z,34.10
2022-12-07T17:11:33.754Z,34.00
2022-12-07T17:14:19.660Z,34.00
2022-12-07T17:16:47.159Z,34.00
2022-12-07T17:19:18.526Z,34.10
2022-12-07T17:21:51.713Z,34.10
2022-12-07T17:24:18.667Z,34.20
2022-12-07T17:26:47.607Z,34.10
2022-12-07T17:29:17.581Z,34.10
2022-12-07T17:31:50.993Z,34.20
2022-12-07T17:34:19.046Z,34.10
2022-12-07T17:36:46.539Z,34.10
2022-12-07T17:39:18.626Z,34.10
2022-12-07T17:42:04.676Z,34.10
2022-12-07T17:44:31.915Z,34.00
2022-12-07T17:46:59.653Z,34.00
2022-12-07T17:49:29.848Z,34.10
2022-12-07T17:52:15.695Z,34.00
2022-12-07T17:54:43.061Z,33.90
2022-12-07T17:57:10.165Z,33.90
2022-12-07T17:59:37.246Z,33.80
2022-12-07T18:02:04.544Z,33.80
2022-12-07T18:04:31.564Z,33.90
2022-12-07T18:06:58.548Z,33.80
2022-12-07T18:09:27.753Z,33.80
2022-12-07T18:11:54.729Z,33.90
2022-12-07T18:14:21.784Z,33.80
2022-12-07T18:16:50.087Z,33.70
2022-12-07T18:19:17.301Z,33.80
2022-12-07T18:21:45.251Z,33.80
2022-12-07T18:24:15.379Z,33.80
2022-12-07T18:26:44.425Z,33.90
2022-12-07T18:29:16.548Z,34.60
2022-12-07T18:31:44.586Z,34.40
2022-12-07T18:34:19.148Z,34.30
2022-12-07T18:36:50.184Z,34.30
2022-12-07T18:39:19.334Z,34.20
2022-12-07T18:41:47.004Z,34.00
2022-12-07T18:44:14.491Z,34.00
2022-12-07T18:46:42.664Z,34.00
2022-12-07T18:49:13.738Z,33.90
2022-12-07T18:51:41.820Z,34.20
2022-12-07T18:54:09.547Z,34.00
2022-12-07T18:56:37.263Z,34.00
2022-12-07T18:59:24.337Z,33.90
2022-12-07T19:01:55.114Z,34.00
2022-12-07T19:04:22.724Z,34.00
2022-12-07T19:06:50.801Z,34.00
2022-12-07T19:09:19.207Z,34.00
2022-12-07T19:11:53.197Z,33.90
2022-12-07T19:14:28.229Z,34.00
2022-12-07T19:17:03.541Z,34.10
2022-12-07T19:19:40.049Z,34.10
2022-12-07T19:22:09.120Z,34.10
2022-12-07T19:24:37.323Z,34.00
2022-12-07T19:27:07.187Z,34.10
2022-12-07T19:29:36.924Z,34.10
2022-12-07T19:32:05.744Z,34.20
2022-12-07T19:34:32.820Z,34.20
2022-12-07T19:37:00.604Z,34.20
2022-12-07T19:39:28.069Z,34.20
2022-12-07T19:41:55.129Z,34.20
2022-12-07T19:44:25.630Z,34.30
2022-12-07T19:47:01.074Z,34.20
2022-12-07T19:49:36.026Z,34.30
2022-12-07T19:52:08.020Z,34.30
2022-12-07T19:54:38.609Z,34.40
2022-12-07T19:57:07.486Z,34.40
2022-12-07T19:59:35.248Z,34.70
2022-12-07T20:02:02.501Z,34.30
2022-12-07T20:04:36.128Z,34.40
2022-12-07T20:07:03.530Z,34.30
2022-12-07T20:09:30.586Z,34.30
2022-12-07T20:12:16.518Z,34.40
2022-12-07T20:14:43.655Z,34.40
2022-12-07T20:17:11.029Z,34.40
2022-12-07T20:19:39.232Z,34.40
2022-12-07T20:22:06.979Z,34.40
2022-12-07T20:24:36.031Z,34.40
2022-12-07T20:27:04.809Z,34.50
2022-12-07T20:29:32.802Z,36.10
2022-12-07T20:32:00.000Z,34.40
2022-12-07T20:34:27.186Z,34.40
2022-12-07T20:36:55.640Z,34.40
2022-12-07T20:39:23.977Z,34.50
2022-12-07T20:42:10.573Z,34.50
2022-12-07T20:44:37.649Z,34.50
2022-12-07T20:47:07.059Z,34.50
2022-12-07T20:49:34.402Z,34.50
2022-12-07T20:52:01.754Z,34.50
2022-12-07T20:54:28.904Z,34.50
2022-12-07T20:56:56.093Z,34.60
2022-12-07T20:59:23.086Z,34.60
2022-12-07T21:01:50.152Z,34.50
2022-12-07T21:04:18.195Z,34.60
2022-12-07T21:06:45.388Z,34.60
2022-12-07T21:09:12.726Z,34.60
2022-12-07T21:11:39.756Z,34.60
2022-12-07T21:14:07.291Z,34.70
2022-12-07T21:16:34.235Z,34.60
2022-12-07T21:19:05.766Z,34.60
2022-12-07T21:21:34.404Z,34.60
2022-12-07T21:24:05.068Z,34.60
2022-12-07T21:26:34.879Z,34.60
2022-12-07T21:29:04.558Z,34.70
2022-12-07T21:31:31.783Z,34.70
2022-12-07T21:33:58.917Z,34.70
2022-12-07T21:36:26.874Z,34.70
2022-12-07T21:38:54.598Z,35.30
2022-12-07T21:41:27.920Z,34.80
2022-12-07T21:43:55.549Z,34.80
2022-12-07T21:46:33.841Z,34.70
2022-12-07T21:49:13.392Z,34.70
2022-12-07T21:51:42.990Z,34.80
2022-12-07T21:54:12.376Z,34.80
2022-12-07T21:56:42.153Z,34.80
2022-12-07T21:59:15.805Z,34.80
2022-12-07T22:01:47.285Z,34.90
2022-12-07T22:04:24.653Z,34.80
2022-12-07T22:06:53.318Z,34.90
2022-12-07T22:09:23.568Z,34.70
2022-12-07T22:11:50.793Z,34.80
2022-12-07T22:14:36.828Z,34.80
2022-12-07T22:17:03.926Z,34.80
2022-12-07T22:19:31.049Z,34.80
2022-12-07T22:21:58.127Z,34.80
2022-12-07T22:24:25.128Z,34.90
2022-12-07T22:26:55.210Z,34.90
2022-12-07T22:29:24.185Z,34.90
2022-12-07T22:31:54.054Z,35.50
2022-12-07T22:34:21.784Z,34.90
2022-12-07T22:36:50.486Z,34.90
2022-12-07T22:39:17.543Z,34.90
2022-12-07T22:41:44.733Z,34.90
2022-12-07T22:44:11.747Z,34.90
2022-12-07T22:46:39.107Z,34.90
2022-12-07T22:49:06.843Z,35.00
2022-12-07T22:51:37.505Z,35.00
2022-12-07T22:54:09.164Z,34.90
2022-12-07T22:56:38.137Z,34.90
2022-12-07T22:59:07.149Z,34.90
2022-12-07T23:01:35.249Z,35.00
2022-12-07T23:04:02.291Z,34.90
2022-12-07T23:06:32.371Z,35.00
2022-12-07T23:09:02.918Z,35.00
2022-12-07T23:11:51.628Z,35.00
2022-12-07T23:14:24.086Z,35.00
2022-12-07T23:16:50.992Z,35.00
2022-12-07T23:19:21.043Z,35.00
2022-12-07T23:21:48.108Z,35.00
2022-12-07T23:24:16.149Z,35.00
2022-12-07T23:26:45.193Z,35.00
2022-12-07T23:29:17.542Z,35.00
2022-12-07T23:31:46.340Z,35.00
2022-12-07T23:34:13.730Z,35.00
2022-12-07T23:36:40.674Z,35.00
2022-12-07T23:39:07.637Z,35.00
2022-12-07T23:41:34.515Z,35.00
2022-12-07T23:44:02.303Z,35.00
2022-12-07T23:46:32.545Z,35.00
2022-12-07T23:49:03.202Z,35.00
2022-12-07T23:51:33.782Z,35.10
2022-12-07T23:54:01.890Z,35.00
2022-12-07T23:56:31.802Z,35.00
2022-12-07T23:59:02.489Z,35.00
